Time;durP1;ratioP1;P1;durP2;ratioP2;P2;SDS_P1;SDS_P2;PMS_P1;PMS_P2;Temp;Humidity;BMP_temperature;BMP_pressure;BME280_temperature;BME280_humidity;BME280_pressure;Samples;Min_cycle;Max_cycle;Signal;HPM_P1;HPM_P2
2023/09/10 00:02:34;;;;;;;11.68;6.28;;;;;;;21.65;56.38;100757.03;5432702;32;34975;-76
2023/09/10 00:05:37;;;;;;;10.27;6.35;;;;;;;21.76;55.94;100751.66;5440986;32;35329;-75
2023/09/10 00:08:39;;;;;;;15.25;6.82;;;;;;;21.74;55.59;100756.31;5444529;32;34933;-72
2023/09/10 00:11:42;;;;;;;13.23;6.20;;;;;;;21.70;55.43;100753.00;5432376;32;34951;-75
2023/09/10 00:14:45;;;;;;;11.18;6.12;;;;;;;21.09;58.38;100749.78;5424177;32;34753;-74
2023/09/10 00:17:48;;;;;;;10.07;6.40;;;;;;;21.06;57.51;100756.22;5433079;32;35085;-74
2023/09/10 00:20:51;;;;;;;;;;;;;;;21.21;57.74;100750.66;5443252;32;34005;-74
2023/09/10 00:23:53;;;;;;;11.20;6.25;;;;;;;21.65;55.93;100747.19;5434410;32;32305;-75
2023/09/10 00:26:55;;;;;;;10.43;6.28;;;;;;;20.82;58.41;100758.09;5441777;32;35472;-72
2023/09/10 00:29:58;;;;;;;11.27;6.37;;;;;;;20.99;57.73;100746.97;5437089;32;33868;-72
2023/09/10 00:33:00;;;;;;;10.55;6.18;;;;;;;20.99;58.51;100749.63;5429733;32;35175;-72
2023/09/10 00:36:03;;;;;;;12.55;5.78;;;;;;;21.42;57.28;100756.19;5437879;32;34466;-72
2023/09/10 00:39:05;;;;;;;;;;;;;;;21.86;55.10;100752.66;5442855;32;35237;-75
2023/09/10 00:42:09;;;;;;;11.50;6.25;;;;;;;22.08;55.24;100754.41;5430728;32;34676;-72
2023/09/10 00:45:15;;;;;;;10.07;5.93;;;;;;;21.75;55.95;100752.66;5445144;32;35174;-72
2023/09/10 00:48:18;;;;;;;13.43;6.80;;;;;;;20.54;60.61;100754.84;5418170;32;34070;-74
2023/09/10 00:51:20;;;;;;;9.73;6.05;;;;;;;20.39;61.25;100761.28;5446724;32;34511;-71
2023/09/10 00:54:23;;;;;;;10.10;6.50;;;;;;;20.32;61.43;100754.69;5415716;32;34512;-72
2023/09/10 00:57:26;;;;;;;11.55;7.53;;;;;;;20.25;61.81;100764.12;5446175;32;34107;-74
2023/09/10 01:00:29;;;;;;;12.55;7.35;;;;;;;20.43;61.32;100757.44;5435364;32;34689;-76
2023/09/10 01:03:34;;;;;;;12.27;6.72;;;;;;;20.44;60.97;100753.78;5442307;32;35107;-75
2023/09/10 01:06:37;;;;;;;11.12;6.43;;;;;;;20.40;60.87;100746.97;5436509;32;35194;-75
2023/09/10 01:09:40;;;;;;;12.60;6.70;;;;;;;19.97;63.18;100758.16;5429553;32;34826;-76
2023/09/10 01:13:01;;;;;;;11.73;6.68;;;;;;;20.86;60.29;100751.53;5448565;32;34259;-72
2023/09/10 01:16:12;;;;;;;14.15;6.78;;;;;;;21.19;58.56;100755.25;5437269;32;34438;-71
2023/09/10 01:19:49;;;;;;;12.90;7.12;;;;;;;20.69;60.69;100758.19;5445008;32;35566;-72
2023/09/10 01:23:04;;;;;;;11.05;6.60;;;;;;;20.86;60.23;100756.88;5427965;32;35149;-76
2023/09/10 01:26:06;;;;;;;10.25;5.85;;;;;;;20.76;60.07;100753.22;5429867;32;35381;-75
2023/09/10 01:29:14;;;;;;;12.07;6.37;;;;;;;21.32;58.48;100743.53;5436433;32;34398;-75
2023/09/10 01:32:23;;;;;;;12.40;6.68;;;;;;;21.33;58.50;100747.91;5444700;32;34742;-72
2023/09/10 01:35:50;;;;;;;12.75;6.75;;;;;;;21.83;56.95;100752.88;5431310;32;34837;-75
2023/09/10 01:39:07;;;;;;;13.75;7.22;;;;;;;20.24;62.38;100755.28;5434890;32;35507;-71
2023/09/10 01:42:10;;;;;;;12.80;6.90;;;;;;;20.29;62.86;100761.12;5436975;32;35128;-71
2023/09/10 01:45:13;;;;;;;10.60;6.75;;;;;;;20.72;61.57;100749.91;5434539;32;34565;-72
2023/09/10 01:48:15;;;;;;;11.75;6.82;;;;;;;21.46;58.83;100746.97;5435916;32;34120;-74
2023/09/10 01:51:17;;;;;;;12.00;7.15;;;;;;;20.19;62.55;100753.91;5429598;32;34534;-75
2023/09/10 01:54:20;;;;;;;13.70;6.72;;;;;;;20.36;62.96;100756.19;5449089;32;34769;-75
2023/09/10 01:57:22;;;;;;;14.18;7.15;;;;;;;19.72;65.10;100760.88;5423746;32;35286;-74
2023/09/10 02:00:25;;;;;;;11.25;6.55;;;;;;;20.00;64.25;100762.37;5449589;32;34024;-72
2023/09/10 02:03:27;;;;;;;11.60;6.60;;;;;;;20.55;61.97;100753.03;5434510;32;35171;-75
2023/09/10 02:06:30;;;;;;;12.30;7.07;;;;;;;19.80;64.68;100769.16;5429777;32;35442;-74
2023/09/10 02:09:32;;;;;;;14.05;6.70;;;;;;;20.28;62.34;100769.22;5417788;32;34926;-71
2023/09/10 02:12:35;;;;;;;13.02;7.12;;;;;;;19.87;63.90;100765.09;5432438;32;34016;-74
2023/09/10 02:15:39;;;;;;;13.18;6.00;;;;;;;19.46;65.49;100766.19;5434472;32;33916;-71
2023/09/10 02:18:41;;;;;;;14.30;6.12;;;;;;;19.78;64.89;100765.75;5443715;32;34681;-72
2023/09/10 02:21:43;;;;;;;11.68;6.30;;;;;;;20.48;61.70;100757.97;5448202;32;34593;-75
2023/09/10 02:24:50;;;;;;;12.60;6.60;;;;;;;19.80;64.36;100768.31;5444683;32;34592;-73
2023/09/10 02:27:52;;;;;;;10.80;6.40;;;;;;;20.24;62.68;100765.09;5436084;32;34741;-74
2023/09/10 02:30:55;;;;;;;12.13;6.60;;;;;;;20.92;60.41;100764.44;5432593;32;34880;-72
2023/09/10 02:34:00;;;;;;;11.77;6.87;;;;;;;21.16;59.18;100755.50;5431900;32;34680;-72
2023/09/10 02:37:03;;;;;;;11.35;6.85;;;;;;;20.49;61.65;100761.50;5434828;32;33828;-71
2023/09/10 02:40:07;;;;;;;12.13;6.78;;;;;;;19.87;63.77;100765.09;5443962;32;34290;-71
2023/09/10 02:43:10;;;;;;;10.73;6.22;;;;;;;20.36;62.93;100772.19;5446846;32;34320;-71
2023/09/10 02:46:12;;;;;;;10.80;7.05;;;;;;;19.96;64.13;100764.41;5430462;32;34795;-72
2023/09/10 02:49:17;;;;;;;11.55;6.65;;;;;;;20.33;63.08;100766.22;5418195;32;34325;-72
2023/09/10 02:52:19;;;;;;;10.75;6.65;;;;;;;19.91;64.48;100765.75;5447328;32;35079;-74
2023/09/10 02:55:22;;;;;;;12.82;7.03;;;;;;;19.80;64.58;100768.31;5444511;32;34514;-74
2023/09/10 02:58:24;;;;;;;11.02;6.75;;;;;;;19.73;65.30;100759.91;5447673;32;34672;-74
2023/09/10 03:01:26;;;;;;;11.00;6.32;;;;;;;19.81;64.93;100754.84;5443472;32;35506;-71
2023/09/10 03:04:29;;;;;;;12.55;6.53;;;;;;;20.46;62.83;100751.87;5423088;32;35137;-72
2023/09/10 03:07:32;;;;;;;15.57;7.15;;;;;;;20.67;61.47;100753.91;5431090;32;34519;-72
2023/09/10 03:10:35;;;;;;;11.52;7.00;;;;;;;19.72;65.00;100758.19;5428236;32;35329;-71
2023/09/10 03:13:38;;;;;;;11.60;6.60;;;;;;;19.47;66.00;100748.38;5440693;32;34083;-71
2023/09/10 03:16:40;;;;;;;12.27;6.80;;;;;;;19.41;65.67;100744.34;5443884;32;35294;-73
2023/09/10 03:19:43;;;;;;;12.60;6.93;;;;;;;19.82;64.85;100753.03;5448262;32;33987;-73
2023/09/10 03:22:45;;;;;;;;;;;;;;;19.32;66.22;100747.66;5442988;32;34657;-77
2023/09/10 03:25:48;;;;;;;14.18;6.60;;;;;;;19.55;65.69;100743.34;5448046;32;34434;-71
2023/09/10 03:28:50;;;;;;;12.20;7.20;;;;;;;20.10;63.40;100741.25;5443411;32;35075;-71
2023/09/10 03:31:53;;;;;;;16.60;6.97;;;;;;;20.37;61.96;100743.69;5442823;32;34478;-71
2023/09/10 03:34:55;;;;;;;14.52;6.37;;;;;;;19.46;65.33;100749.34;5449360;32;34253;-72
2023/09/10 03:37:58;;;;;;;11.82;6.82;;;;;;;19.20;66.79;100745.84;5417518;32;34199;-75
2023/09/10 03:41:00;;;;;;;10.93;6.80;;;;;;;19.87;64.55;100742.91;5447926;32;34726;-71
2023/09/10 03:44:03;;;;;;;31.67;23.45;;;;;;;20.11;63.51;100746.47;5416867;32;35317;-74
2023/09/10 03:47:05;;;;;;;10.60;6.70;;;;;;;19.64;65.19;100737.41;5418774;32;34917;-75
2023/09/10 03:50:10;;;;;;;13.32;6.75;;;;;;;20.45;62.24;100734.16;5444776;32;34081;-71
2023/09/10 03:53:13;;;;;;;11.23;6.75;;;;;;;20.76;60.86;100729.19;5433804;32;34182;-71
2023/09/10 03:56:15;;;;;;;13.27;6.80;;;;;;;20.86;60.56;100734.66;5434439;32;34207;-71
2023/09/10 03:59:18;;;;;;;10.35;6.78;;;;;;;20.69;61.15;100736.81;5431147;32;35131;-71
2023/09/10 04:02:20;;;;;;;12.15;7.20;;;;;;;20.35;62.17;100743.81;5430527;32;35565;-72
2023/09/10 04:05:23;;;;;;;11.88;6.70;;;;;;;20.34;62.43;100746.56;5427356;32;34994;-70
2023/09/10 04:08:26;;;;;;;;;;;;;;;20.54;61.21;100743.28;5418290;32;34672;-71
2023/09/10 04:11:28;;;;;;;11.20;6.90;;;;;;;19.41;65.52;100752.31;5431891;32;34654;-71
2023/09/10 04:14:31;;;;;;;16.75;8.00;;;;;;;19.30;66.37;100748.69;5430599;32;34646;-71
2023/09/10 04:17:33;;;;;;;14.15;7.43;;;;;;;19.13;67.49;100753.41;5447394;32;34487;-71
2023/09/10 04:20:36;;;;;;;11.48;6.90;;;;;;;19.16;67.46;100755.00;5429032;32;34147;-75
2023/09/10 04:23:38;;;;;;;12.52;6.75;;;;;;;20.15;63.74;100755.06;5436220;32;34850;-71
2023/09/10 04:26:40;;;;;;;12.40;6.85;;;;;;;20.45;62.14;100749.34;5442655;32;34529;-71
2023/09/10 04:29:43;;;;;;;11.95;6.65;;;;;;;20.06;63.57;100758.44;5432287;32;34807;-75
2023/09/10 04:32:46;;;;;;;12.70;6.35;;;;;;;20.47;61.93;100750.91;5445233;32;35357;-75
2023/09/10 04:35:53;;;;;;;14.13;6.62;;;;;;;19.72;64.51;100759.06;5428425;32;34525;-74
2023/09/10 04:38:56;;;;;;;14.25;7.00;;;;;;;19.11;66.46;100765.09;5447165;32;35484;-74
2023/09/10 04:41:58;;;;;;;13.77;6.95;;;;;;;19.17;65.72;100770.03;5444286;32;34511;-75
2023/09/10 04:45:03;;;;;;;11.52;6.90;;;;;;;19.33;65.66;100768.00;5435322;32;34672;-71
2023/09/10 04:48:05;;;;;;;12.50;6.40;;;;;;;19.44;65.44;100768.09;5434794;32;34083;-75
2023/09/10 04:51:08;;;;;;;13.73;7.75;;;;;;;19.66;64.41;100766.63;5445082;32;34690;-71
2023/09/10 04:54:10;;;;;;;15.45;7.30;;;;;;;19.69;64.20;100777.06;5437778;32;34619;-73
2023/09/10 04:57:12;;;;;;;14.00;6.78;;;;;;;20.34;62.17;100768.78;5444521;32;34148;-71
2023/09/10 05:00:15;;;;;;;12.30;6.93;;;;;;;20.33;61.85;100771.56;5449449;32;34399;-74
2023/09/10 05:03:17;;;;;;;15.32;7.15;;;;;;;20.86;59.88;100775.59;5438023;32;34749;-74
2023/09/10 05:06:20;;;;;;;12.25;6.53;;;;;;;21.03;59.06;100775.16;5430468;32;34241;-74
2023/09/10 05:09:23;;;;;;;11.55;6.82;;;;;;;20.75;60.21;100779.09;5429374;32;34505;-71
2023/09/10 05:12:25;;;;;;;11.48;6.45;;;;;;;21.00;59.73;100771.88;5444605;32;35124;-72
2023/09/10 05:15:27;;;;;;;13.82;6.40;;;;;;;21.99;56.34;100771.25;5435351;32;34657;-72
2023/09/10 05:18:31;;;;;;;10.82;6.10;;;;;;;22.47;54.45;100770.91;5443636;32;34105;-75
2023/09/10 05:21:33;;;;;;;13.20;6.70;;;;;;;22.79;53.11;100776.25;5445328;32;34056;-72
2023/09/10 05:24:35;;;;;;;;;;;;;;;21.26;57.75;100781.41;5430256;32;34699;-72
2023/09/10 05:27:38;;;;;;;10.40;6.60;;;;;;;22.69;54.00;100771.66;5440049;32;34757;-72
2023/09/10 05:30:40;;;;;;;;;;;;;;;22.40;54.43;100774.06;5418250;32;34849;-72
2023/09/10 05:33:42;;;;;;;10.77;6.55;;;;;;;22.99;52.42;100770.06;5434619;32;35297;-72
2023/09/10 05:36:45;;;;;;;;;;;;;;;23.71;50.97;100775.47;5448824;32;34763;-75
2023/09/10 05:39:49;;;;;;;15.43;7.07;;;;;;;22.96;52.56;100783.75;5445226;32;34692;-74
2023/09/10 05:42:51;;;;;;;8.93;5.68;;;;;;;23.66;50.84;100791.12;5448274;32;35361;-75
2023/09/10 05:45:54;;;;;;;10.65;6.35;;;;;;;23.92;49.97;100787.97;5443933;32;34851;-75
2023/09/10 05:48:56;;;;;;;10.95;6.15;;;;;;;25.22;46.81;100787.69;5426631;32;35194;-76
2023/09/10 05:51:59;;;;;;;12.88;6.82;;;;;;;25.25;46.66;100791.94;5443948;32;35143;-72
2023/09/10 05:55:02;;;;;;;10.23;6.35;;;;;;;25.95;44.56;100787.03;5444405;32;34478;-76
2023/09/10 05:58:04;;;;;;;13.30;7.00;;;;;;;24.15;48.79;100800.19;5448371;32;34790;-76
2023/09/10 06:01:07;;;;;;;15.23;6.55;;;;;;;24.87;46.96;100790.13;5443403;32;35244;-76
2023/09/10 06:04:09;;;;;;;15.05;6.68;;;;;;;24.68;47.88;100799.87;5435752;32;35120;-72
2023/09/10 06:07:12;;;;;;;10.20;6.53;;;;;;;24.82;47.50;100794.06;5440159;32;34804;-75
2023/09/10 06:10:14;;;;;;;12.20;6.55;;;;;;;26.77;43.50;100788.78;5446683;32;34106;-72
2023/09/10 06:13:16;;;;;;;16.75;6.95;;;;;;;27.63;40.87;100783.50;5445034;32;35004;-72
2023/09/10 06:16:19;;;;;;;13.65;6.50;;;;;;;26.57;43.33;100793.47;5443390;32;34714;-72
2023/09/10 06:19:22;;;;;;;9.55;5.97;;;;;;;26.60;42.67;100793.16;5448726;32;34607;-75
2023/09/10 06:22:24;;;;;;;11.05;6.50;;;;;;;27.30;41.86;100791.41;5434460;32;34915;-75
2023/09/10 06:25:27;;;;;;;16.77;6.12;;;;;;;28.03;40.04;100797.25;5430980;32;35365;-72
2023/09/10 06:28:29;;;;;;;15.95;6.05;;;;;;;27.62;39.97;100793.47;5443096;32;34710;-71
2023/09/10 06:31:32;;;;;;;11.38;6.40;;;;;;;27.36;40.77;100798.03;5446632;32;35712;-75
2023/09/10 06:34:35;;;;;;;10.48;5.75;;;;;;;28.93;37.38;100797.47;5445708;32;34544;-77
2023/09/10 06:37:38;;;;;;;9.98;5.75;;;;;;;29.40;36.45;100796.75;5443589;32;35430;-74
2023/09/10 06:40:40;;;;;;;9.52;5.60;;;;;;;29.32;36.59;100794.06;5420701;32;34771;-73
2023/09/10 06:43:44;;;;;;;9.95;5.57;;;;;;;28.19;38.60;100801.84;5444225;32;34088;-78
2023/09/10 06:46:46;;;;;;;9.32;6.40;;;;;;;28.95;37.48;100794.59;5433736;32;34891;-72
2023/09/10 06:49:49;;;;;;;13.07;5.70;;;;;;;28.19;39.01;100801.84;5428397;32;34722;-69
2023/09/10 06:52:51;;;;;;;10.13;6.07;;;;;;;29.69;36.04;100790.78;5445187;32;34095;-72
2023/09/10 06:55:54;;;;;;;10.57;5.62;;;;;;;27.24;40.38;100805.53;5446303;32;34168;-69
2023/09/10 06:58:56;;;;;;;10.95;5.80;;;;;;;28.80;37.76;100810.63;5434596;32;35234;-70
2023/09/10 07:01:59;;;;;;;11.12;6.00;;;;;;;28.20;38.51;100810.78;5446330;32;35350;-74
2023/09/10 07:05:02;;;;;;;9.70;5.80;;;;;;;28.68;37.40;100807.41;5442595;32;34499;-73
2023/09/10 07:08:05;;;;;;;11.50;6.07;;;;;;;27.57;39.79;100805.78;5444779;32;34420;-69
2023/09/10 07:11:07;;;;;;;11.77;8.02;;;;;;;29.29;37.20;100805.22;5442789;32;34256;-69
2023/09/10 07:14:10;;;;;;;8.70;5.32;;;;;;;29.38;36.57;100807.75;5445339;32;34672;-69
2023/09/10 07:17:13;;;;;;;11.50;5.78;;;;;;;30.65;33.97;100812.12;5436160;32;35584;-69
2023/09/10 07:20:16;;;;;;;14.23;5.82;;;;;;;31.76;32.12;100799.81;5443742;32;35380;-74
2023/09/10 07:23:18;;;;;;;8.70;5.70;;;;;;;32.32;30.91;100806.37;5447545;32;34415;-75
2023/09/10 07:26:21;;;;;;;14.48;5.90;;;;;;;29.47;35.67;100800.44;5442672;32;34521;-69
2023/09/10 07:29:23;;;;;;;9.15;5.90;;;;;;;29.18;36.34;100811.00;5435880;32;34912;-74
2023/09/10 07:32:25;;;;;;;9.75;5.70;;;;;;;32.84;30.08;100801.72;5431352;32;35329;-74
2023/09/10 07:35:28;;;;;;;10.55;6.15;;;;;;;33.58;29.01;100798.59;5444122;32;34117;-73
2023/09/10 07:38:31;;;;;;;13.32;6.10;;;;;;;30.31;34.07;100803.56;5446670;32;34180;-68
2023/09/10 07:41:33;;;;;;;13.32;5.57;;;;;;;30.45;34.33;100802.78;5417609;32;34616;-73
2023/09/10 07:44:36;;;;;;;10.23;5.37;;;;;;;32.04;31.60;100802.69;5408208;32;35256;-73
2023/09/10 07:47:38;;;;;;;17.27;6.50;;;;;;;34.56;27.22;100811.00;5432496;32;34031;-74
2023/09/10 07:50:41;;;;;;;12.82;6.15;;;;;;;33.90;28.00;100800.63;5446733;32;35671;-68
2023/09/10 07:53:44;;;;;;;9.90;5.97;;;;;;;31.55;32.20;100808.69;5443337;32;34993;-73
2023/09/10 07:56:47;;;;;;;10.32;5.65;;;;;;;32.70;30.28;100806.19;5442696;32;34520;-68
2023/09/10 07:59:51;;;;;;;9.13;5.47;;;;;;;32.02;31.26;100802.06;5447894;32;34438;-68
2023/09/10 08:02:53;;;;;;;11.15;5.55;;;;;;;32.70;30.15;100800.75;5443005;32;34406;-74
2023/09/10 08:05:56;;;;;;;13.35;6.10;;;;;;;34.24;27.98;100793.44;5431369;32;34358;-73
2023/09/10 08:08:58;;;;;;;10.50;5.80;;;;;;;33.40;28.80;100793.63;5441251;32;35110;-73
2023/09/10 08:12:01;;;;;;;13.40;6.82;;;;;;;34.74;26.95;100783.94;5446319;32;34767;-68
2023/09/10 08:15:04;;;;;;;9.80;5.95;;;;;;;33.72;28.04;100783.97;5442840;32;34580;-73
2023/09/10 08:18:10;;;;;;;9.55;5.35;;;;;;;34.65;26.68;100782.47;5433107;32;35261;-74
2023/09/10 08:21:13;;;;;;;10.70;5.82;;;;;;;35.33;26.26;100784.16;5426715;32;265800;-68
2023/09/10 08:24:16;;;;;;;9.50;5.65;;;;;;;32.47;30.08;100798.22;5443843;32;20125;-69
2023/09/10 08:27:18;;;;;;;8.43;5.45;;;;;;;34.34;27.66;100790.34;5434986;32;20124;-68
2023/09/10 08:30:25;;;;;;;11.52;5.70;;;;;;;34.19;27.28;100785.87;5427747;32;33637;-74
2023/09/10 08:33:28;;;;;;;10.98;5.70;;;;;;;32.83;29.81;100792.72;5425446;32;33202;-69
2023/09/10 08:36:30;;;;;;;10.48;5.82;;;;;;;32.86;29.54;100783.31;5443981;32;33769;-74
2023/09/10 08:39:33;;;;;;;10.60;5.40;;;;;;;33.75;28.42;100782.72;5442238;32;33598;-68
2023/09/10 08:42:45;;;;;;;9.32;5.47;;;;;;;34.84;26.26;100780.78;5446319;32;34603;-68
2023/09/10 08:45:49;;;;;;;7.93;5.12;;;;;;;34.42;27.07;100774.66;5439629;32;33264;-68
2023/09/10 08:48:52;;;;;;;9.98;5.22;;;;;;;33.54;27.58;100767.31;5436931;32;33622;-69
2023/09/10 08:51:55;;;;;;;9.75;5.18;;;;;;;35.66;24.61;100762.22;5429360;32;33388;-69
2023/09/10 08:54:58;;;;;;;13.88;6.80;;;;;;;35.05;26.26;100770.75;5429693;32;33653;-69
2023/09/10 08:58:01;;;;;;;10.00;5.50;;;;;;;36.06;25.17;100762.94;5414648;32;33601;-73
2023/09/10 09:01:04;;;;;;;16.45;6.43;;;;;;;35.56;25.66;100762.69;5427810;32;34434;-74
2023/09/10 09:04:07;;;;;;;9.27;6.05;;;;;;;37.05;24.09;100750.50;5435348;32;33477;-74
2023/09/10 09:07:12;;;;;;;11.23;6.12;;;;;;;34.68;26.85;100757.47;5438683;32;34521;-68
2023/09/10 09:10:18;;;;;;;10.75;5.97;;;;;;;34.50;27.10;100745.47;5445254;32;35262;-68
2023/09/10 09:13:22;;;;;;;10.98;5.95;;;;;;;34.71;26.84;100750.75;5442254;32;33698;-69
2023/09/10 09:16:24;;;;;;;13.85;5.43;;;;;;;35.04;26.33;100749.91;5428477;32;33776;-69
2023/09/10 09:19:30;;;;;;;11.00;5.22;;;;;;;37.48;22.92;100742.25;5432431;32;33804;-74
2023/09/10 09:22:33;;;;;;;9.68;5.03;;;;;;;35.70;24.90;100744.34;5441232;32;36112;-69
2023/09/10 09:25:36;;;;;;;13.48;5.20;;;;;;;36.88;23.00;100742.84;5433882;32;33140;-69
2023/09/10 09:28:39;;;;;;;10.98;3.97;;;;;;;37.43;22.26;100730.34;5434993;32;33324;-69
2023/09/10 09:31:42;;;;;;;8.98;4.22;;;;;;;38.71;19.18;100728.19;5434792;32;33197;-72
2023/09/10 09:34:44;;;;;;;9.73;4.22;;;;;;;35.46;22.32;100722.13;5434732;32;34256;-74
2023/09/10 09:37:47;;;;;;;8.75;4.03;;;;;;;38.58;19.08;100722.88;5443117;32;34617;-69
2023/09/10 09:40:49;;;;;;;9.05;4.32;;;;;;;36.00;21.86;100730.97;5436837;32;33702;-73
2023/09/10 09:43:52;;;;;;;9.32;4.25;;;;;;;38.55;19.81;100723.34;5443902;32;33745;-73
2023/09/10 09:46:57;;;;;;;11.18;4.82;;;;;;;40.02;17.87;100716.78;5442738;32;33752;-74
2023/09/10 09:50:00;;;;;;;9.40;4.20;;;;;;;37.01;21.04;100713.66;5444421;32;34372;-68
2023/09/10 09:53:02;;;;;;;8.65;4.10;;;;;;;39.17;19.40;100714.72;5434809;32;33645;-69
2023/09/10 09:56:05;;;;;;;6.87;4.20;;;;;;;36.06;22.69;100716.44;5431859;32;33860;-69
2023/09/10 09:59:10;;;;;;;9.43;4.57;;;;;;;37.41;21.35;100716.84;5443760;32;33263;-74
2023/09/10 10:02:17;;;;;;;7.68;4.53;;;;;;;38.80;20.06;100708.59;5445912;32;34722;-75
2023/09/10 10:05:20;;;;;;;7.60;4.60;;;;;;;41.09;17.69;100708.47;5442569;32;33974;-74
2023/09/10 10:08:25;;;;;;;9.23;4.78;;;;;;;41.48;17.15;100696.56;5445105;32;33277;-69
2023/09/10 10:11:32;;;;;;;7.55;4.62;;;;;;;41.40;17.13;100693.16;5426455;32;33520;-74
2023/09/10 10:14:36;;;;;;;8.38;4.95;;;;;;;39.66;18.86;100696.81;5422958;32;33716;-74
2023/09/10 10:17:41;;;;;;;13.20;4.93;;;;;;;40.67;17.85;100691.53;5447845;32;33924;-70
2023/09/10 10:20:47;;;;;;;24.42;5.97;;;;;;;38.04;20.99;100688.22;5443344;32;34178;-69
2023/09/10 10:23:56;;;;;;;8.70;4.07;;;;;;;37.07;21.91;100679.88;5448795;32;33830;-74
2023/09/10 10:27:00;;;;;;;7.43;4.32;;;;;;;40.36;17.26;100681.88;5443450;32;33738;-69
2023/09/10 10:30:06;;;;;;;10.27;4.65;;;;;;;36.96;20.90;100675.97;5421018;32;33679;-74
2023/09/10 10:33:10;;;;;;;8.48;5.28;;;;;;;35.98;22.22;100681.13;5445673;32;33965;-68
2023/09/10 10:36:29;;;;;;;8.75;4.72;;;;;;;36.24;21.72;100678.22;5417199;32;33716;-68
2023/09/10 10:39:51;;;;;;;12.37;4.72;;;;;;;34.53;23.81;100682.31;5447341;32;33664;-75
2023/09/10 10:43:15;;;;;;;9.13;4.72;;;;;;;33.44;25.26;100675.06;5442336;32;34516;-73
2023/09/10 10:46:18;;;;;;;10.25;4.65;;;;;;;33.34;24.62;100680.00;5429611;32;33564;-69
2023/09/10 10:49:21;;;;;;;8.38;5.10;;;;;;;33.06;25.26;100672.72;5438385;32;34367;-69
2023/09/10 10:52:31;;;;;;;10.70;5.10;;;;;;;32.19;25.81;100677.59;5443681;32;33376;-74
2023/09/10 10:55:33;;;;;;;13.57;5.62;;;;;;;32.66;25.36;100670.75;5436741;32;33653;-73
2023/09/10 10:58:40;;;;;;;8.95;4.78;;;;;;;32.79;25.58;100662.66;5432274;32;33445;-73
2023/09/10 11:02:09;;;;;;;11.65;5.00;;;;;;;32.84;25.19;100662.91;5433927;32;34246;-69
2023/09/10 11:05:12;;;;;;;8.88;4.72;;;;;;;33.52;24.53;100653.09;5447013;32;33957;-72
2023/09/10 11:08:26;;;;;;;10.00;5.07;;;;;;;34.63;23.04;100644.50;5427668;32;33635;-74
2023/09/10 11:11:37;;;;;;;9.15;4.18;;;;;;;33.39;24.91;100653.87;5447929;32;33796;-68
2023/09/10 11:15:01;;;;;;;9.18;4.15;;;;;;;33.54;24.43;100647.41;5444168;32;34193;-68
2023/09/10 11:18:35;;;;;;;7.20;4.22;;;;;;;34.04;23.45;100646.13;5443283;32;33003;-74
2023/09/10 11:21:56;;;;;;;9.15;4.50;;;;;;;34.39;22.92;100635.03;5420110;32;33841;-69
2023/09/10 11:25:05;;;;;;;9.02;4.78;;;;;;;34.66;22.56;100642.22;5442612;32;34210;-74
2023/09/10 11:28:42;;;;;;;9.18;4.57;;;;;;;33.78;23.88;100641.44;5445868;32;33916;-73
2023/09/10 11:31:49;;;;;;;9.02;4.68;;;;;;;32.91;24.76;100638.47;5447349;32;33364;-74
2023/09/10 11:34:51;;;;;;;9.38;5.00;;;;;;;34.31;23.17;100647.00;5432982;32;32724;-75
2023/09/10 11:37:55;;;;;;;6.72;4.37;;;;;;;36.33;21.03;100637.75;5445990;32;33913;-75
2023/09/10 11:40:58;;;;;;;7.57;4.68;;;;;;;34.89;22.22;100639.00;5442674;32;34338;-75
2023/09/10 11:44:04;;;;;;;7.07;4.22;;;;;;;36.11;21.31;100634.53;5446883;32;33845;-70
2023/09/10 11:47:06;;;;;;;6.28;4.28;;;;;;;33.57;23.86;100634.25;5430204;32;34592;-69
2023/09/10 11:50:10;;;;;;;7.55;4.15;;;;;;;34.60;22.65;100628.56;5407404;32;33458;-73
2023/09/10 11:53:13;;;;;;;8.48;4.65;;;;;;;34.40;22.71;100632.12;5437932;32;34425;-68
2023/09/10 11:56:16;;;;;;;9.88;4.57;;;;;;;33.49;23.99;100628.13;5441697;32;33655;-68
2023/09/10 11:59:20;;;;;;;7.25;4.25;;;;;;;33.46;23.92;100623.09;5447142;32;34629;-73
2023/09/10 12:02:26;;;;;;;8.60;4.93;;;;;;;33.21;24.09;100614.56;5441859;32;33316;-69
2023/09/10 12:05:29;;;;;;;9.13;4.55;;;;;;;34.93;21.82;100615.72;5437054;32;34270;-69
2023/09/10 12:08:35;;;;;;;19.70;4.95;;;;;;;35.48;21.16;100607.13;5442277;32;34021;-74
2023/09/10 12:11:38;;;;;;;7.85;3.80;;;;;;;36.77;20.01;100601.12;5418670;32;33368;-74
2023/09/10 12:14:41;;;;;;;6.78;4.50;;;;;;;37.74;18.73;100593.00;5447483;32;33285;-70
2023/09/10 12:17:43;;;;;;;10.50;4.50;;;;;;;37.93;18.20;100591.91;5429381;32;34474;-69
2023/09/10 12:20:46;;;;;;;8.00;4.55;;;;;;;38.48;18.15;100590.81;5439787;32;33660;-75
2023/09/10 12:23:49;;;;;;;7.32;4.18;;;;;;;40.54;15.76;100581.69;5426869;32;33954;-69
2023/09/10 12:26:51;;;;;;;8.05;4.18;;;;;;;41.05;14.98;100576.91;5443821;32;33091;-69
2023/09/10 12:29:54;;;;;;;7.30;3.90;;;;;;;42.51;13.72;100575.87;5414360;32;34243;-72
2023/09/10 12:32:56;;;;;;;7.53;4.12;;;;;;;39.78;16.02;100586.72;5430252;32;33134;-68
2023/09/10 12:36:01;;;;;;;6.82;4.30;;;;;;;38.60;17.45;100577.94;5446680;32;34621;-69
2023/09/10 12:39:17;;;;;;;7.12;4.40;;;;;;;38.74;17.40;100573.88;5442051;32;34395;-74
2023/09/10 12:42:20;;;;;;;8.48;4.35;;;;;;;36.42;19.38;100576.22;5446253;32;32956;-68
2023/09/10 12:45:22;;;;;;;8.20;4.80;;;;;;;35.63;20.43;100582.25;5434118;32;34027;-69
2023/09/10 12:48:25;;;;;;;6.32;4.30;;;;;;;35.09;21.11;100575.34;5428041;32;33311;-70
2023/09/10 12:51:27;;;;;;;7.55;4.43;;;;;;;35.52;20.01;100576.44;5436692;32;34436;-69
2023/09/10 12:54:30;;;;;;;8.88;4.30;;;;;;;35.90;19.45;100569.25;5398702;32;33837;-69
2023/09/10 12:57:33;;;;;;;7.43;4.15;;;;;;;36.33;19.18;100569.34;5445276;32;34020;-74
2023/09/10 13:00:36;;;;;;;7.65;4.35;;;;;;;35.72;19.73;100572.72;5443875;32;33432;-69
2023/09/10 13:03:38;;;;;;;9.93;4.12;;;;;;;35.25;20.02;100570.22;5435625;32;33715;-70
2023/09/10 13:06:41;;;;;;;8.02;4.43;;;;;;;34.93;20.41;100577.50;5443064;32;33791;-70
2023/09/10 13:09:45;;;;;;;8.65;4.57;;;;;;;37.07;18.07;100568.38;5417052;32;33697;-69
2023/09/10 13:12:47;;;;;;;7.97;4.78;;;;;;;37.57;18.00;100561.84;5424510;32;33627;-68
2023/09/10 13:15:50;;;;;;;10.77;5.75;;;;;;;37.68;17.84;100563.81;5445462;32;33179;-74
2023/09/10 13:18:52;;;;;;;7.80;4.85;;;;;;;35.78;19.93;100566.37;5447986;32;33788;-69
2023/09/10 13:21:55;;;;;;;8.57;4.32;;;;;;;35.48;20.38;100563.41;5418866;32;34178;-75
2023/09/10 13:24:58;;;;;;;10.63;4.60;;;;;;;34.15;21.57;100560.97;5435424;32;33753;-69
2023/09/10 13:28:01;;;;;;;8.98;4.43;;;;;;;34.63;21.21;100552.53;5420879;32;34041;-73
2023/09/10 13:31:03;;;;;;;8.30;4.30;;;;;;;34.42;21.32;100553.66;5444258;32;33174;-73
2023/09/10 13:34:06;;;;;;;7.32;4.72;;;;;;;35.18;20.29;100554.94;5449231;32;33773;-68
2023/09/10 13:37:08;;;;;;;7.68;4.30;;;;;;;33.97;22.21;100543.56;5442895;32;33323;-68
2023/09/10 13:40:11;;;;;;;10.60;5.12;;;;;;;33.38;23.17;100550.53;5449652;32;33834;-73
2023/09/10 13:43:14;;;;;;;7.68;4.55;;;;;;;33.46;23.65;100553.09;5436429;32;33694;-68
2023/09/10 13:46:16;;;;;;;7.50;4.32;;;;;;;33.05;23.92;100545.81;5413944;32;33965;-68
2023/09/10 13:49:19;;;;;;;9.02;4.65;;;;;;;33.15;23.55;100542.69;5447568;32;33855;-75
2023/09/10 13:52:22;;;;;;;11.85;4.68;;;;;;;34.22;22.00;100544.63;5435980;32;32867;-68
2023/09/10 13:55:24;;;;;;;9.70;4.60;;;;;;;34.17;22.06;100536.22;5449564;32;33679;-68
2023/09/10 13:58:26;;;;;;;7.28;4.25;;;;;;;33.83;22.89;100532.63;5442799;32;34729;-74
2023/09/10 14:01:30;;;;;;;7.47;4.40;;;;;;;33.94;22.53;100533.91;5448891;32;33805;-67
2023/09/10 14:04:33;;;;;;;7.15;4.37;;;;;;;33.35;23.03;100529.97;5444005;32;34295;-68
2023/09/10 14:07:35;;;;;;;9.02;4.40;;;;;;;33.55;22.69;100529.22;5431636;32;33147;-73
2023/09/10 14:10:38;;;;;;;9.45;4.40;;;;;;;33.60;22.40;100523.97;5443437;32;33604;-74
2023/09/10 14:13:41;;;;;;;8.93;4.50;;;;;;;33.00;22.83;100520.22;5442285;32;32239;-70